createdAt,value
2023-08-29T00:00:13.640Z,13.00
2023-08-29T00:02:42.933Z,12.94
2023-08-29T00:05:11.524Z,12.89
2023-08-29T00:07:39.881Z,12.86
2023-08-29T00:10:08.867Z,12.81
2023-08-29T00:12:36.557Z,12.80
2023-08-29T00:15:06.700Z,12.79
2023-08-29T00:17:34.413Z,12.77
2023-08-29T00:20:03.664Z,12.75
2023-08-29T00:22:31.351Z,12.76
2023-08-29T00:24:59.238Z,12.76
2023-08-29T00:27:26.915Z,12.76
2023-08-29T00:29:57.707Z,12.74
2023-08-29T00:32:26.749Z,12.72
2023-08-29T00:34:54.595Z,12.72
2023-08-29T00:37:22.298Z,12.70
2023-08-29T00:39:50.101Z,12.67
2023-08-29T00:42:17.786Z,12.67
2023-08-29T00:44:45.448Z,12.67
2023-08-29T00:47:14.485Z,12.67
2023-08-29T00:49:43.502Z,12.65
2023-08-29T00:52:11.271Z,12.62
2023-08-29T00:54:39.200Z,12.58
2023-08-29T00:57:07.280Z,12.54
2023-08-29T00:59:35.418Z,12.49
2023-08-29T01:02:05.139Z,12.47
2023-08-29T01:04:33.031Z,12.43
2023-08-29T01:07:02.043Z,12.40
2023-08-29T01:09:29.834Z,12.39
2023-08-29T01:12:10.779Z,12.39
2023-08-29T01:14:43.138Z,12.40
2023-08-29T01:17:14.742Z,12.43
2023-08-29T01:19:44.602Z,12.45
2023-08-29T01:22:27.897Z,12.50
2023-08-29T01:25:00.845Z,12.55
2023-08-29T01:27:31.681Z,12.61
2023-08-29T01:30:01.525Z,12.67
2023-08-29T01:32:29.474Z,12.72
2023-08-29T01:34:57.739Z,12.79
2023-08-29T01:37:25.599Z,12.84
2023-08-29T01:39:53.363Z,12.89
2023-08-29T01:42:21.091Z,12.93
2023-08-29T01:44:50.171Z,12.93
2023-08-29T01:47:17.892Z,12.95
2023-08-29T01:49:46.381Z,12.93
2023-08-29T01:52:14.329Z,12.91
2023-08-29T01:54:42.085Z,12.89
2023-08-29T01:57:12.458Z,12.88
2023-08-29T01:59:40.793Z,12.87
2023-08-29T02:02:10.605Z,12.89
2023-08-29T02:04:38.592Z,12.91
2023-08-29T02:07:06.930Z,12.95
2023-08-29T02:09:34.619Z,12.99
2023-08-29T02:12:03.775Z,13.04
2023-08-29T02:14:31.527Z,13.07
2023-08-29T02:16:59.537Z,13.11
2023-08-29T02:19:30.072Z,13.15
2023-08-29T02:21:58.106Z,13.20
2023-08-29T02:24:26.002Z,13.23
2023-08-29T02:26:54.070Z,13.27
2023-08-29T02:29:21.924Z,13.29
2023-08-29T02:31:49.797Z,13.32
2023-08-29T02:34:19.117Z,13.32
2023-08-29T02:36:48.259Z,13.33
2023-08-29T02:39:15.943Z,13.35
2023-08-29T02:41:43.614Z,13.36
2023-08-29T02:44:11.268Z,13.37
2023-08-29T02:46:39.950Z,13.39
2023-08-29T02:49:07.982Z,13.40
2023-08-29T02:51:35.730Z,13.40
2023-08-29T02:54:05.263Z,13.40
2023-08-29T02:56:33.014Z,13.40
2023-08-29T02:59:02.062Z,13.38
2023-08-29T03:01:29.906Z,13.37
2023-08-29T03:03:57.659Z,13.38
2023-08-29T03:06:25.674Z,13.38
2023-08-29T03:08:53.413Z,13.44
2023-08-29T03:11:22.431Z,13.48
2023-08-29T03:13:50.140Z,13.53
2023-08-29T03:16:20.555Z,13.59
2023-08-29T03:18:48.584Z,13.66
2023-08-29T03:21:16.278Z,13.72
2023-08-29T03:23:44.274Z,13.78
2023-08-29T03:26:12.402Z,13.85
2023-08-29T03:28:44.787Z,13.91
2023-08-29T03:31:13.238Z,13.94
2023-08-29T03:33:41.209Z,14.01
2023-08-29T03:36:09.767Z,14.05
2023-08-29T03:38:38.666Z,14.10
2023-08-29T03:41:07.116Z,14.14
2023-08-29T03:43:36.200Z,14.17
2023-08-29T03:46:06.722Z,14.17
2023-08-29T03:48:35.432Z,14.18
2023-08-29T03:51:07.131Z,14.15
2023-08-29T03:53:35.399Z,14.14
2023-08-29T03:56:03.613Z,14.09
2023-08-29T03:58:32.050Z,14.05
2023-08-29T04:01:00.376Z,13.99
2023-08-29T04:03:29.727Z,13.93
2023-08-29T04:05:57.639Z,13.89
2023-08-29T04:08:25.302Z,13.83
2023-08-29T04:10:53.535Z,13.77
2023-08-29T04:13:21.316Z,13.73
2023-08-29T04:15:50.297Z,13.69
2023-08-29T04:18:18.736Z,13.64
2023-08-29T04:20:47.795Z,13.58
2023-08-29T04:23:15.973Z,13.54
2023-08-29T04:25:43.662Z,13.50
2023-08-29T04:28:11.290Z,13.45
2023-08-29T04:30:38.975Z,13.41
2023-08-29T04:33:07.999Z,13.35
2023-08-29T04:35:35.747Z,13.31
2023-08-29T04:38:05.296Z,13.27
2023-08-29T04:40:33.241Z,13.24
2023-08-29T04:43:01.073Z,13.23
2023-08-29T04:45:28.973Z,13.21
2023-08-29T04:47:56.752Z,13.22
2023-08-29T04:50:26.589Z,13.23
2023-08-29T04:52:54.973Z,13.27
2023-08-29T04:55:24.200Z,13.29
2023-08-29T04:57:53.002Z,13.31
2023-08-29T05:00:21.296Z,13.33
2023-08-29T05:02:49.102Z,13.37
2023-08-29T05:05:17.063Z,13.40
2023-08-29T05:07:46.202Z,13.42
2023-08-29T05:10:13.883Z,13.45
2023-08-29T05:12:43.224Z,13.48
2023-08-29T05:15:11.669Z,13.52
2023-08-29T05:17:39.488Z,13.56
2023-08-29T05:20:10.831Z,13.59
2023-08-29T05:22:38.905Z,13.64
2023-08-29T05:25:07.790Z,13.68
2023-08-29T05:27:35.917Z,13.74
2023-08-29T05:30:06.270Z,13.78
2023-08-29T05:32:34.196Z,13.83
2023-08-29T05:35:01.945Z,13.86
2023-08-29T05:37:29.589Z,13.91
2023-08-29T05:39:57.308Z,13.96
2023-08-29T05:42:24.958Z,13.99
2023-08-29T05:44:52.843Z,14.03
2023-08-29T05:47:22.144Z,14.09
2023-08-29T05:49:49.778Z,14.12
2023-08-29T05:52:17.441Z,14.17
2023-08-29T05:54:45.178Z,14.20
2023-08-29T05:57:12.831Z,14.24
2023-08-29T05:59:40.672Z,14.27
2023-08-29T06:02:08.326Z,14.33
2023-08-29T06:04:38.648Z,14.36
2023-08-29T06:07:07.126Z,14.42
2023-08-29T06:09:34.845Z,14.46
2023-08-29T06:12:02.577Z,14.49
2023-08-29T06:14:30.287Z,14.55
2023-08-29T06:16:58.144Z,14.60
2023-08-29T06:19:26.787Z,14.66
2023-08-29T06:21:55.886Z,14.71
2023-08-29T06:24:23.651Z,14.77
2023-08-29T06:26:51.465Z,14.84
2023-08-29T06:29:19.103Z,14.92
2023-08-29T06:31:46.767Z,14.99
2023-08-29T06:34:14.573Z,15.09
2023-08-29T06:36:42.789Z,15.18
2023-08-29T06:39:11.814Z,15.28
2023-08-29T06:41:39.460Z,15.38
2023-08-29T06:44:08.282Z,15.47
2023-08-29T06:46:36.143Z,15.58
2023-08-29T06:49:05.735Z,15.65
2023-08-29T06:51:33.555Z,15.72
2023-08-29T06:54:01.413Z,15.80
2023-08-29T06:56:30.720Z,15.87
2023-08-29T06:58:59.896Z,15.93
2023-08-29T07:01:27.820Z,15.97
2023-08-29T07:03:55.498Z,15.99
2023-08-29T07:06:23.328Z,16.02
2023-08-29T07:08:51.024Z,16.08
2023-08-29T07:11:19.029Z,16.12
2023-08-29T07:13:48.451Z,16.19
2023-08-29T07:16:16.140Z,16.21
2023-08-29T07:18:43.787Z,16.26
2023-08-29T07:21:11.939Z,16.33
2023-08-29T07:23:39.571Z,16.40
2023-08-29T07:26:07.255Z,16.46
2023-08-29T07:28:34.925Z,16.53
2023-08-29T07:31:03.999Z,16.57
2023-08-29T07:33:31.903Z,16.66
2023-08-29T07:35:59.803Z,16.75
2023-08-29T07:38:27.495Z,16.85
2023-08-29T07:40:55.233Z,16.96
2023-08-29T07:43:23.536Z,17.04
2023-08-29T07:45:54.097Z,17.17
2023-08-29T07:48:23.217Z,17.28
2023-08-29T07:50:50.934Z,17.37
2023-08-29T07:53:18.623Z,17.46
2023-08-29T07:55:46.755Z,17.63
2023-08-29T07:58:14.579Z,17.74
2023-08-29T08:00:42.272Z,17.80
2023-08-29T08:03:09.926Z,17.90
2023-08-29T08:05:39.030Z,17.94
2023-08-29T08:08:07.451Z,17.99
2023-08-29T08:10:35.439Z,17.98
2023-08-29T08:13:04.892Z,17.99
2023-08-29T08:15:32.567Z,18.11
2023-08-29T08:18:00.288Z,18.14
2023-08-29T08:20:28.021Z,18.23
2023-08-29T08:22:57.033Z,18.32
2023-08-29T08:25:24.851Z,18.40
2023-08-29T08:27:52.494Z,18.43
2023-08-29T08:30:20.422Z,18.54
2023-08-29T08:32:48.077Z,18.68
2023-08-29T08:35:15.802Z,18.76
2023-08-29T08:37:43.464Z,18.84
2023-08-29T08:40:16.541Z,18.91
2023-08-29T08:42:45.644Z,19.02
2023-08-29T08:45:13.516Z,19.07
2023-08-29T08:47:42.407Z,19.22
2023-08-29T08:50:11.499Z,19.29
2023-08-29T08:52:41.725Z,19.32
2023-08-29T08:55:10.399Z,19.34
2023-08-29T08:57:39.743Z,19.47
2023-08-29T09:00:08.858Z,19.51
2023-08-29T09:02:38.536Z,19.45
2023-08-29T09:05:09.021Z,19.58
2023-08-29T09:07:39.553Z,19.68
2023-08-29T09:10:09.131Z,19.69
2023-08-29T09:12:37.066Z,19.72
2023-08-29T09:15:07.227Z,19.76
2023-08-29T09:17:35.022Z,19.85
2023-08-29T09:20:06.243Z,19.96
2023-08-29T09:22:34.733Z,20.06
2023-08-29T09:25:04.677Z,20.13
2023-08-29T09:27:41.475Z,20.25
2023-08-29T09:30:12.985Z,20.34
2023-08-29T09:32:43.731Z,20.33
2023-08-29T09:35:14.112Z,20.32
2023-08-29T09:37:43.529Z,20.46
2023-08-29T09:40:26.998Z,20.52
2023-08-29T09:43:01.805Z,20.51
2023-08-29T09:45:32.896Z,20.65
2023-08-29T09:48:03.517Z,20.80
2023-08-29T09:50:32.265Z,20.82
2023-08-29T09:53:01.689Z,20.90
2023-08-29T09:55:33.778Z,20.93
2023-08-29T09:58:06.173Z,21.00
2023-08-29T10:00:36.881Z,21.14
2023-08-29T10:03:09.200Z,21.36
2023-08-29T10:05:38.367Z,21.40
2023-08-29T10:08:14.110Z,21.32
2023-08-29T10:10:43.667Z,21.34
2023-08-29T10:13:12.810Z,21.32
2023-08-29T10:15:43.536Z,21.45
2023-08-29T10:18:13.016Z,21.49
2023-08-29T10:20:45.105Z,21.55
2023-08-29T10:23:14.660Z,21.32
2023-08-29T10:25:43.053Z,21.38
2023-08-29T10:28:12.913Z,21.47
2023-08-29T10:30:48.199Z,21.50
2023-08-29T10:33:16.421Z,21.53
2023-08-29T10:35:44.415Z,21.61
2023-08-29T10:38:16.261Z,21.73
2023-08-29T10:40:45.186Z,21.80
2023-08-29T10:43:20.348Z,21.88
2023-08-29T10:45:58.072Z,21.77
2023-08-29T10:48:50.213Z,21.79
2023-08-29T10:51:23.543Z,21.84
2023-08-29T10:53:52.480Z,22.04
2023-08-29T10:56:21.916Z,22.07
2023-08-29T10:58:49.781Z,22.09
2023-08-29T11:01:34.592Z,22.32
2023-08-29T11:04:04.855Z,22.49
2023-08-29T11:06:54.619Z,22.65
2023-08-29T11:09:23.886Z,22.73
2023-08-29T11:12:08.509Z,22.67
2023-08-29T11:14:52.853Z,22.92
2023-08-29T11:17:25.171Z,22.96
2023-08-29T11:19:54.651Z,23.04
2023-08-29T11:22:26.719Z,23.17
2023-08-29T11:24:56.599Z,23.25
2023-08-29T11:27:24.713Z,23.17
2023-08-29T11:30:05.960Z,23.15
2023-08-29T11:32:42.693Z,23.13
2023-08-29T11:35:13.204Z,23.06
2023-08-29T11:37:40.986Z,22.89
2023-08-29T11:40:11.408Z,22.94
2023-08-29T11:43:09.786Z,22.89
2023-08-29T11:45:49.012Z,22.70
2023-08-29T11:48:24.843Z,22.70
2023-08-29T11:50:56.339Z,22.75
2023-08-29T11:53:25.242Z,22.88
2023-08-29T11:55:53.331Z,22.93
2023-08-29T11:58:21.204Z,22.96
2023-08-29T12:00:51.606Z,23.00
2023-08-29T12:03:26.177Z,23.04
2023-08-29T12:05:58.023Z,23.10
2023-08-29T12:08:36.337Z,23.19
2023-08-29T12:11:04.556Z,23.19
2023-08-29T12:13:32.424Z,23.21
2023-08-29T12:16:00.427Z,23.18
2023-08-29T12:18:29.892Z,23.08
2023-08-29T12:21:12.548Z,23.09
2023-08-29T12:23:40.233Z,23.09
2023-08-29T12:26:07.867Z,23.16
2023-08-29T12:28:35.561Z,23.27
2023-08-29T12:31:03.283Z,23.29
2023-08-29T12:33:32.352Z,23.28
2023-08-29T12:36:00.163Z,23.35
2023-08-29T12:38:28.863Z,23.33
2023-08-29T12:40:56.631Z,23.21
2023-08-29T12:43:25.093Z,23.26
2023-08-29T12:46:00.060Z,23.26
2023-08-29T12:48:28.632Z,23.02
2023-08-29T12:50:57.647Z,22.94
2023-08-29T12:53:25.357Z,22.93
2023-08-29T12:55:53.307Z,22.89
2023-08-29T12:58:21.184Z,22.77
2023-08-29T13:00:49.004Z,22.57
2023-08-29T13:03:16.809Z,22.46
2023-08-29T13:05:44.839Z,22.36
2023-08-29T13:08:16.511Z,22.27
2023-08-29T13:10:44.250Z,22.15
2023-08-29T13:13:12.427Z,22.04
2023-08-29T13:15:50.357Z,21.94
2023-08-29T13:18:19.796Z,21.88
2023-08-29T13:20:47.514Z,21.52
2023-08-29T13:23:16.720Z,21.25
2023-08-29T13:25:44.643Z,21.09
2023-08-29T13:28:12.335Z,20.90
2023-08-29T13:30:40.011Z,20.84
2023-08-29T13:33:09.092Z,20.74
2023-08-29T13:35:36.914Z,20.61
2023-08-29T13:38:05.888Z,20.46
2023-08-29T13:40:35.903Z,20.40
2023-08-29T13:43:03.728Z,20.39
2023-08-29T13:45:31.848Z,20.38
2023-08-29T13:47:59.732Z,20.33
2023-08-29T13:50:27.456Z,20.28
2023-08-29T13:52:56.993Z,20.27
2023-08-29T13:55:24.698Z,20.40
2023-08-29T13:57:53.949Z,20.32
2023-08-29T14:00:22.333Z,20.29
2023-08-29T14:02:51.401Z,20.22
2023-08-29T14:05:19.381Z,20.13
2023-08-29T14:07:47.102Z,20.02
2023-08-29T14:10:14.790Z,20.00
2023-08-29T14:12:42.620Z,20.00
2023-08-29T14:15:11.906Z,19.98
2023-08-29T14:17:39.740Z,20.02
2023-08-29T14:20:08.785Z,20.16
2023-08-29T14:22:36.501Z,20.25
2023-08-29T14:25:04.288Z,20.41
2023-08-29T14:27:32.080Z,20.59
2023-08-29T14:29:59.807Z,20.67
2023-08-29T14:32:28.976Z,20.58
2023-08-29T14:34:56.626Z,20.61
2023-08-29T14:37:24.346Z,20.45
2023-08-29T14:39:52.020Z,20.55
2023-08-29T14:42:19.685Z,20.59
2023-08-29T14:44:47.585Z,20.65
2023-08-29T14:47:15.303Z,20.76
2023-08-29T14:49:44.302Z,20.90
2023-08-29T14:52:11.991Z,21.09
2023-08-29T14:54:39.613Z,21.21
2023-08-29T14:57:08.473Z,21.32
2023-08-29T14:59:36.498Z,21.34
2023-08-29T15:02:05.374Z,21.42
2023-08-29T15:04:33.169Z,21.54
2023-08-29T15:07:03.505Z,21.67
2023-08-29T15:09:31.274Z,21.79
2023-08-29T15:11:58.984Z,21.87
2023-08-29T15:14:26.786Z,21.99
2023-08-29T15:16:54.569Z,21.92
2023-08-29T15:19:22.282Z,22.06
2023-08-29T15:21:50.358Z,22.11
2023-08-29T15:24:19.787Z,22.22
2023-08-29T15:26:48.832Z,22.26
2023-08-29T15:29:18.249Z,22.23
2023-08-29T15:31:45.972Z,22.30
2023-08-29T15:34:13.731Z,22.29
2023-08-29T15:36:41.511Z,22.29
2023-08-29T15:39:09.181Z,22.25
2023-08-29T15:41:38.460Z,22.17
2023-08-29T15:44:06.407Z,22.24
2023-08-29T15:46:34.170Z,22.24
2023-08-29T15:49:01.981Z,22.25
2023-08-29T15:51:29.640Z,22.29
2023-08-29T15:53:57.329Z,22.40
2023-08-29T15:56:25.086Z,22.42
2023-08-29T15:58:54.090Z,22.20
2023-08-29T16:01:22.374Z,22.03
2023-08-29T16:03:51.547Z,21.83
2023-08-29T16:06:19.400Z,21.68
2023-08-29T16:08:47.069Z,21.45
2023-08-29T16:11:14.698Z,21.05
2023-08-29T16:13:42.380Z,20.77
2023-08-29T16:16:11.573Z,20.52
2023-08-29T16:18:39.362Z,20.31
2023-08-29T16:21:07.111Z,20.07
2023-08-29T16:23:34.908Z,19.84
2023-08-29T16:26:06.886Z,19.67
2023-08-29T16:28:35.149Z,19.51
2023-08-29T16:31:02.842Z,19.40
2023-08-29T16:33:32.054Z,19.27
2023-08-29T16:35:59.846Z,19.16
2023-08-29T16:38:27.530Z,19.00
2023-08-29T16:40:55.234Z,18.85
2023-08-29T16:43:22.993Z,18.71
2023-08-29T16:45:51.497Z,18.57
2023-08-29T16:48:19.581Z,18.42
2023-08-29T16:50:51.933Z,18.30
2023-08-29T16:53:22.476Z,18.19
2023-08-29T16:55:51.053Z,18.10
2023-08-29T16:58:18.928Z,18.17
2023-08-29T17:00:47.014Z,18.11
2023-08-29T17:03:15.073Z,17.99
2023-08-29T17:05:43.227Z,17.99
2023-08-29T17:08:13.974Z,17.92
2023-08-29T17:10:41.966Z,17.84
2023-08-29T17:13:10.542Z,17.75
2023-08-29T17:15:38.283Z,17.75
2023-08-29T17:18:06.695Z,17.75
2023-08-29T17:20:34.686Z,17.70
2023-08-29T17:23:02.471Z,17.67
2023-08-29T17:25:32.428Z,17.65
2023-08-29T17:28:00.327Z,17.65
2023-08-29T17:30:28.389Z,17.65
2023-08-29T17:32:56.235Z,17.66
2023-08-29T17:35:23.997Z,17.66
2023-08-29T17:37:51.698Z,17.69
2023-08-29T17:40:19.815Z,17.67
2023-08-29T17:42:48.917Z,17.64
2023-08-29T17:45:17.088Z,17.63
2023-08-29T17:47:44.956Z,17.54
2023-08-29T17:50:13.702Z,17.46
2023-08-29T17:52:41.467Z,17.38
2023-08-29T17:55:09.539Z,17.28
2023-08-29T17:57:37.258Z,17.18
2023-08-29T18:00:07.658Z,17.07
2023-08-29T18:02:35.480Z,16.96
2023-08-29T18:05:03.257Z,16.87
2023-08-29T18:07:31.259Z,16.76
2023-08-29T18:10:10.555Z,16.64
2023-08-29T18:12:39.384Z,16.51
2023-08-29T18:15:10.248Z,16.41
2023-08-29T18:17:38.622Z,16.29
2023-08-29T18:20:07.903Z,16.18
2023-08-29T18:22:36.124Z,16.06
2023-08-29T18:25:03.932Z,15.97
2023-08-29T18:27:31.754Z,15.83
2023-08-29T18:29:59.507Z,15.75
2023-08-29T18:32:32.481Z,15.64
2023-08-29T18:35:00.429Z,15.54
2023-08-29T18:37:28.282Z,15.43
2023-08-29T18:39:57.320Z,15.34
2023-08-29T18:42:25.023Z,15.25
2023-08-29T18:44:53.314Z,15.11
2023-08-29T18:47:21.055Z,15.09
2023-08-29T18:49:50.358Z,15.02
2023-08-29T18:52:18.117Z,14.95
2023-08-29T18:54:45.844Z,14.90
2023-08-29T18:57:13.725Z,14.83
2023-08-29T18:59:41.564Z,14.79
2023-08-29T19:02:09.267Z,14.75
2023-08-29T19:04:37.169Z,14.69
2023-08-29T19:07:06.437Z,14.66
2023-08-29T19:09:34.170Z,14.63
2023-08-29T19:12:01.979Z,14.60
2023-08-29T19:14:29.638Z,14.58
2023-08-29T19:16:57.274Z,14.53
2023-08-29T19:19:24.993Z,14.49
2023-08-29T19:21:56.198Z,14.41
2023-08-29T19:24:25.338Z,14.43
2023-08-29T19:26:53.025Z,14.38
2023-08-29T19:29:21.052Z,14.35
2023-08-29T19:31:48.691Z,14.33
2023-08-29T19:34:16.914Z,14.32
2023-08-29T19:36:45.539Z,14.31
2023-08-29T19:39:17.636Z,14.28
2023-08-29T19:41:46.956Z,14.25
2023-08-29T19:44:17.127Z,14.24
2023-08-29T19:46:45.583Z,14.23
2023-08-29T19:49:13.434Z,14.21
2023-08-29T19:51:41.283Z,14.21
2023-08-29T19:54:08.942Z,14.19
2023-08-29T19:56:36.667Z,14.19
2023-08-29T19:59:06.843Z,14.18
2023-08-29T20:01:34.709Z,14.17
2023-08-29T20:04:02.480Z,14.16
2023-08-29T20:06:30.209Z,14.16
2023-08-29T20:08:58.198Z,14.16
2023-08-29T20:11:25.953Z,14.16
2023-08-29T20:13:53.631Z,14.15
2023-08-29T20:16:22.685Z,14.14
2023-08-29T20:18:50.407Z,14.12
2023-08-29T20:21:18.141Z,14.10
2023-08-29T20:24:00.937Z,14.07
2023-08-29T20:26:30.543Z,14.04
2023-08-29T20:29:00.193Z,14.03
2023-08-29T20:31:29.604Z,14.00
2023-08-29T20:33:57.388Z,13.97
2023-08-29T20:36:25.623Z,13.97
2023-08-29T20:38:53.350Z,13.95
2023-08-29T20:41:21.180Z,13.93
2023-08-29T20:43:48.957Z,13.91
2023-08-29T20:46:16.784Z,13.90
2023-08-29T20:48:50.543Z,13.86
2023-08-29T20:51:18.882Z,13.85
2023-08-29T20:53:47.210Z,13.82
2023-08-29T20:56:14.971Z,13.78
2023-08-29T20:58:42.654Z,13.80
2023-08-29T21:01:10.480Z,13.78
2023-08-29T21:03:38.191Z,13.77
2023-08-29T21:06:07.506Z,13.74
2023-08-29T21:08:35.236Z,13.74
2023-08-29T21:11:05.397Z,13.73
2023-08-29T21:13:33.065Z,13.73
2023-08-29T21:16:00.863Z,13.72
2023-08-29T21:18:28.826Z,13.73
2023-08-29T21:20:57.551Z,13.72
2023-08-29T21:23:26.948Z,13.72
2023-08-29T21:25:55.241Z,13.73
2023-08-29T21:28:24.592Z,13.73
2023-08-29T21:30:54.050Z,13.75
2023-08-29T21:33:22.904Z,13.74
2023-08-29T21:35:51.645Z,13.75
2023-08-29T21:38:19.955Z,13.73
2023-08-29T21:40:49.148Z,13.73
2023-08-29T21:43:19.531Z,13.72
2023-08-29T21:45:54.250Z,13.71
2023-08-29T21:48:23.189Z,13.69
2023-08-29T21:50:52.684Z,13.69
2023-08-29T21:53:20.441Z,13.69
2023-08-29T21:55:49.654Z,13.68
2023-08-29T21:58:17.646Z,13.67
2023-08-29T22:00:49.285Z,13.64
2023-08-29T22:03:17.066Z,13.62
2023-08-29T22:05:45.201Z,13.57
2023-08-29T22:08:13.097Z,13.56
2023-08-29T22:10:40.887Z,13.54
2023-08-29T22:13:11.015Z,13.50
2023-08-29T22:15:39.221Z,13.50
2023-08-29T22:18:08.591Z,13.50
2023-08-29T22:20:36.590Z,13.50
2023-08-29T22:23:04.680Z,13.48
2023-08-29T22:25:32.446Z,13.46
2023-08-29T22:28:00.172Z,13.43
2023-08-29T22:30:29.281Z,13.42
2023-08-29T22:32:57.187Z,13.40
2023-08-29T22:35:24.910Z,13.37
2023-08-29T22:37:52.912Z,13.36
2023-08-29T22:40:20.649Z,13.34
2023-08-29T22:42:48.375Z,13.31
2023-08-29T22:45:16.158Z,13.27
2023-08-29T22:47:45.271Z,13.21
2023-08-29T22:50:13.022Z,13.09
2023-08-29T22:52:40.816Z,13.13
2023-08-29T22:55:10.153Z,13.09
2023-08-29T22:57:37.880Z,13.04
2023-08-29T23:00:09.435Z,12.99
2023-08-29T23:02:37.240Z,12.93
2023-08-29T23:05:08.033Z,12.87
2023-08-29T23:07:35.894Z,12.82
2023-08-29T23:10:04.889Z,12.76
2023-08-29T23:12:32.615Z,12.71
2023-08-29T23:15:00.353Z,12.66
2023-08-29T23:17:28.029Z,12.62
2023-08-29T23:19:55.976Z,12.58
2023-08-29T23:22:24.980Z,12.53
2023-08-29T23:24:52.652Z,12.49
2023-08-29T23:27:21.098Z,12.46
2023-08-29T23:29:48.955Z,12.42
2023-08-29T23:32:18.291Z,12.39
2023-08-29T23:34:46.385Z,12.37
2023-08-29T23:37:14.073Z,12.34
2023-08-29T23:39:43.348Z,12.32
2023-08-29T23:42:11.772Z,12.32
2023-08-29T23:44:39.478Z,12.31
2023-08-29T23:47:07.731Z,12.29
2023-08-29T23:49:35.393Z,12.29
2023-08-29T23:52:03.136Z,12.27
2023-08-29T23:54:30.804Z,12.28
2023-08-29T23:56:59.960Z,12.29
2023-08-29T23:59:28.634Z,12.28
